createdAt,value
2017-06-20T00:01:58.730Z,18.30
2017-06-20T00:04:26.239Z,18.30
2017-06-20T00:06:53.743Z,18.30
2017-06-20T00:09:21.263Z,18.30
2017-06-20T00:11:48.772Z,18.20
2017-06-20T00:14:16.299Z,18.20
2017-06-20T00:16:43.815Z,18.20
2017-06-20T00:19:11.315Z,18.20
2017-06-20T00:21:38.835Z,18.30
2017-06-20T00:24:06.343Z,18.30
2017-06-20T00:26:34.644Z,18.30
2017-06-20T00:29:02.144Z,18.20
2017-06-20T00:31:29.654Z,18.30
2017-06-20T00:33:57.944Z,18.30
2017-06-20T00:36:25.457Z,18.30
2017-06-20T00:38:52.995Z,18.20
2017-06-20T00:41:20.499Z,18.20
2017-06-20T00:43:48.007Z,18.20
2017-06-20T00:46:15.527Z,18.20
2017-06-20T00:48:43.039Z,18.20
2017-06-20T00:51:10.571Z,18.20
2017-06-20T00:53:38.075Z,18.10
2017-06-20T00:56:05.583Z,18.10
2017-06-20T00:58:33.111Z,18.10
2017-06-20T01:01:01.388Z,18.10
2017-06-20T01:03:29.695Z,18.10
2017-06-20T01:05:57.211Z,18.10
2017-06-20T01:08:24.723Z,18.10
2017-06-20T01:10:52.249Z,18.10
2017-06-20T01:13:19.756Z,18.10
2017-06-20T01:15:47.286Z,18.00
2017-06-20T01:18:14.795Z,18.00
2017-06-20T01:20:42.307Z,18.00
2017-06-20T01:23:09.835Z,17.90
2017-06-20T01:25:37.351Z,18.00
2017-06-20T01:28:04.887Z,18.00
2017-06-20T01:30:32.405Z,18.00
2017-06-20T01:33:00.683Z,18.00
2017-06-20T01:35:28.971Z,18.00
2017-06-20T01:37:56.483Z,18.00
2017-06-20T01:40:24.007Z,18.00
2017-06-20T01:42:51.515Z,18.00
2017-06-20T01:45:19.047Z,18.00
2017-06-20T01:47:46.556Z,18.00
2017-06-20T01:50:14.067Z,18.00
2017-06-20T01:52:41.598Z,18.00
2017-06-20T01:55:09.107Z,18.00
2017-06-20T01:57:36.639Z,17.90
2017-06-20T02:00:04.147Z,17.90
2017-06-20T02:02:31.658Z,17.90
2017-06-20T02:04:59.183Z,17.90
2017-06-20T02:07:26.695Z,17.90
2017-06-20T02:09:54.224Z,17.90
2017-06-20T02:12:21.735Z,17.90
2017-06-20T02:14:50.037Z,17.90
2017-06-20T02:17:17.544Z,17.90
2017-06-20T02:19:45.053Z,17.90
2017-06-20T02:22:12.579Z,17.90
2017-06-20T02:24:40.087Z,17.90
2017-06-20T02:27:07.631Z,17.90
2017-06-20T02:29:35.698Z,17.90
2017-06-20T02:32:03.207Z,17.90
2017-06-20T02:34:30.736Z,17.80
2017-06-20T02:36:58.251Z,17.80
2017-06-20T02:39:25.783Z,17.90
2017-06-20T02:41:53.296Z,17.90
2017-06-20T02:44:20.808Z,17.90
2017-06-20T02:46:49.103Z,17.90
2017-06-20T02:49:16.616Z,17.90
2017-06-20T02:51:44.147Z,17.90
2017-06-20T02:54:11.655Z,17.90
2017-06-20T02:56:39.163Z,17.90
2017-06-20T02:59:06.687Z,17.80
2017-06-20T03:01:35.011Z,17.80
2017-06-20T03:04:02.554Z,17.80
2017-06-20T03:06:30.064Z,17.80
2017-06-20T03:08:57.579Z,17.90
2017-06-20T03:11:25.103Z,17.90
2017-06-20T03:13:53.380Z,17.90
2017-06-20T03:16:21.739Z,17.80
2017-06-20T03:18:50.020Z,17.90
2017-06-20T03:21:17.527Z,17.90
2017-06-20T03:23:45.069Z,17.90
2017-06-20T03:26:12.579Z,17.90
2017-06-20T03:28:40.107Z,17.90
2017-06-20T03:31:07.615Z,17.90
2017-06-20T03:33:35.128Z,17.90
2017-06-20T03:36:02.660Z,18.00
2017-06-20T03:38:30.172Z,17.90
2017-06-20T03:40:57.704Z,18.00
2017-06-20T03:43:25.211Z,17.90
2017-06-20T03:45:52.720Z,18.00
2017-06-20T03:48:20.295Z,18.00
2017-06-20T03:50:47.809Z,18.00
2017-06-20T03:53:15.339Z,18.00
2017-06-20T03:55:42.847Z,18.00
2017-06-20T03:58:10.355Z,18.10
2017-06-20T04:00:37.892Z,18.10
2017-06-20T04:03:05.399Z,18.20
2017-06-20T04:05:32.933Z,18.20
2017-06-20T04:08:00.439Z,18.20
2017-06-20T04:10:27.955Z,18.30
2017-06-20T04:12:55.515Z,18.30
2017-06-20T04:15:23.792Z,18.80
2017-06-20T04:17:52.099Z,19.10
2017-06-20T04:20:19.603Z,19.10
2017-06-20T04:22:47.116Z,19.60
2017-06-20T04:25:14.650Z,20.00
2017-06-20T04:27:42.170Z,20.80
2017-06-20T04:30:09.695Z,21.40
2017-06-20T04:32:37.203Z,21.30
2017-06-20T04:35:04.716Z,21.20
2017-06-20T04:37:32.243Z,21.10
2017-06-20T04:39:59.753Z,20.80
2017-06-20T04:42:27.279Z,20.50
2017-06-20T04:44:54.788Z,20.60
2017-06-20T04:47:22.303Z,20.80
2017-06-20T04:49:50.390Z,20.80
2017-06-20T04:52:17.895Z,20.80
2017-06-20T04:54:46.192Z,20.60
2017-06-20T04:57:13.699Z,20.60
2017-06-20T04:59:41.215Z,20.50
2017-06-20T05:02:08.743Z,20.40
2017-06-20T05:04:36.251Z,20.40
2017-06-20T05:07:03.783Z,20.40
2017-06-20T05:09:31.303Z,20.30
2017-06-20T05:11:58.819Z,20.40
2017-06-20T05:14:26.347Z,20.40
2017-06-20T05:16:53.855Z,20.40
2017-06-20T05:19:21.395Z,20.50
2017-06-20T05:21:48.904Z,20.70
2017-06-20T05:24:16.419Z,21.10
2017-06-20T05:26:43.938Z,21.30
2017-06-20T05:29:11.444Z,21.40
2017-06-20T05:31:38.971Z,21.30
2017-06-20T05:34:06.593Z,21.20
2017-06-20T05:36:34.095Z,21.30
2017-06-20T05:39:01.620Z,21.40
2017-06-20T05:41:29.895Z,21.60
2017-06-20T05:43:58.204Z,21.70
2017-06-20T05:46:25.718Z,21.70
2017-06-20T05:48:53.227Z,21.80
2017-06-20T05:51:20.747Z,21.90
2017-06-20T05:53:48.268Z,22.10
2017-06-20T05:56:15.796Z,22.20
2017-06-20T05:58:43.303Z,22.20
2017-06-20T06:01:10.820Z,22.30
2017-06-20T06:03:38.353Z,22.30
2017-06-20T06:06:05.857Z,22.30
2017-06-20T06:08:33.395Z,22.40
2017-06-20T06:11:00.904Z,22.50
2017-06-20T06:13:28.416Z,22.60
2017-06-20T06:15:55.940Z,22.70
2017-06-20T06:18:23.447Z,23.00
2017-06-20T06:20:50.983Z,23.30
2017-06-20T06:23:18.488Z,23.60
2017-06-20T06:25:45.993Z,23.90
2017-06-20T06:28:13.523Z,24.20
2017-06-20T06:30:41.033Z,24.40
2017-06-20T06:33:08.566Z,24.70
2017-06-20T06:35:36.072Z,25.00
2017-06-20T06:38:03.579Z,25.30
2017-06-20T06:40:31.111Z,25.70
2017-06-20T06:42:59.394Z,26.40
2017-06-20T06:45:27.683Z,26.70
2017-06-20T06:47:55.195Z,26.70
2017-06-20T06:50:22.707Z,26.70
2017-06-20T06:52:50.231Z,26.80
2017-06-20T06:55:18.507Z,27.30
2017-06-20T06:57:46.803Z,27.40
2017-06-20T07:00:14.312Z,27.40
2017-06-20T07:02:41.823Z,27.50
2017-06-20T07:05:09.344Z,27.70
2017-06-20T07:07:36.847Z,27.70
2017-06-20T07:10:04.375Z,28.10
2017-06-20T07:12:32.654Z,28.30
2017-06-20T07:15:00.927Z,28.20
2017-06-20T07:17:29.219Z,28.30
2017-06-20T07:19:56.727Z,28.30
2017-06-20T07:22:24.256Z,28.50
2017-06-20T07:24:51.763Z,28.60
2017-06-20T07:27:19.277Z,28.70
2017-06-20T07:29:46.796Z,28.70
2017-06-20T07:32:14.307Z,28.70
2017-06-20T07:34:41.845Z,29.10
2017-06-20T07:37:09.347Z,29.20
2017-06-20T07:39:36.855Z,29.30
2017-06-20T07:42:04.378Z,29.00
2017-06-20T07:44:31.895Z,29.20
2017-06-20T07:46:59.439Z,29.40
2017-06-20T07:49:26.944Z,29.20
2017-06-20T07:51:54.448Z,29.30
2017-06-20T07:54:21.983Z,29.60
2017-06-20T07:56:50.252Z,29.70
2017-06-20T07:59:18.541Z,29.70
2017-06-20T08:01:46.811Z,29.80
2017-06-20T08:04:14.334Z,29.80
2017-06-20T08:06:41.855Z,29.70
2017-06-20T08:09:09.371Z,29.60
2017-06-20T08:11:36.919Z,29.80
2017-06-20T08:14:04.438Z,29.80
2017-06-20T08:16:31.952Z,30.10
2017-06-20T08:18:59.475Z,30.10
2017-06-20T08:21:32.707Z,29.90
2017-06-20T08:24:01.006Z,29.90
2017-06-20T08:26:28.518Z,29.90
2017-06-20T08:28:56.023Z,30.30
2017-06-20T08:31:23.543Z,30.10
2017-06-20T08:33:51.056Z,30.00
2017-06-20T08:36:18.585Z,30.10
2017-06-20T08:38:46.861Z,29.60
2017-06-20T08:41:15.139Z,29.90
2017-06-20T08:43:42.677Z,29.80
2017-06-20T08:46:10.189Z,30.30
2017-06-20T08:48:37.716Z,29.90
2017-06-20T08:51:05.223Z,30.30
2017-06-20T08:53:32.728Z,30.60
2017-06-20T08:56:01.020Z,30.50
2017-06-20T08:58:28.527Z,30.50
2017-06-20T09:00:56.048Z,30.50
2017-06-20T09:03:23.547Z,30.70
2017-06-20T09:05:51.071Z,30.70
2017-06-20T09:08:18.594Z,30.80
2017-06-20T09:10:46.863Z,30.90
2017-06-20T09:13:15.156Z,30.70
2017-06-20T09:15:42.664Z,30.70
2017-06-20T09:18:10.167Z,30.50
2017-06-20T09:20:38.455Z,30.50
2017-06-20T09:23:05.952Z,30.50
2017-06-20T09:25:33.503Z,30.70
2017-06-20T09:28:01.015Z,30.80
2017-06-20T09:30:29.287Z,30.80
2017-06-20T09:32:57.580Z,30.90
2017-06-20T09:35:25.088Z,31.00
2017-06-20T09:37:52.613Z,31.30
2017-06-20T09:40:20.127Z,31.20
2017-06-20T09:42:47.646Z,31.20
2017-06-20T09:45:15.167Z,31.50
2017-06-20T09:47:42.668Z,31.50
2017-06-20T09:50:10.201Z,31.10
2017-06-20T09:52:37.715Z,31.20
2017-06-20T09:55:05.220Z,31.40
2017-06-20T09:57:32.743Z,31.60
2017-06-20T10:00:01.012Z,30.50
2017-06-20T10:02:28.539Z,30.50
2017-06-20T10:04:56.043Z,30.30
2017-06-20T10:07:24.313Z,31.10
2017-06-20T10:09:52.603Z,31.40
2017-06-20T10:12:20.120Z,31.40
2017-06-20T10:14:47.655Z,31.40
2017-06-20T10:17:15.162Z,31.00
2017-06-20T10:19:42.666Z,30.90
2017-06-20T10:22:10.201Z,31.20
2017-06-20T10:24:37.715Z,31.80
2017-06-20T10:27:05.236Z,32.00
2017-06-20T10:29:32.743Z,31.70
2017-06-20T10:32:00.248Z,32.00
2017-06-20T10:34:27.785Z,32.40
2017-06-20T10:36:55.298Z,32.10
2017-06-20T10:39:22.831Z,32.20
2017-06-20T10:41:50.386Z,32.40
2017-06-20T10:44:17.899Z,32.50
2017-06-20T10:46:46.195Z,31.90
2017-06-20T10:49:13.699Z,31.90
2017-06-20T10:51:41.240Z,31.80
2017-06-20T10:54:08.755Z,32.00
2017-06-20T10:56:37.030Z,32.50
2017-06-20T10:59:05.325Z,32.40
2017-06-20T11:01:32.835Z,32.40
2017-06-20T11:04:00.367Z,32.70
2017-06-20T11:06:27.880Z,32.30
2017-06-20T11:08:55.392Z,32.50
2017-06-20T11:11:22.915Z,32.50
2017-06-20T11:13:50.419Z,32.20
2017-06-20T11:16:17.948Z,32.40
2017-06-20T11:18:45.457Z,32.00
2017-06-20T11:21:12.968Z,31.80
2017-06-20T11:23:40.496Z,31.80
2017-06-20T11:26:08.771Z,32.60
2017-06-20T11:28:37.063Z,32.70
2017-06-20T11:31:04.570Z,32.60
2017-06-20T11:33:32.100Z,32.80
2017-06-20T11:35:59.603Z,32.70
2017-06-20T11:38:27.113Z,31.80
2017-06-20T11:40:54.639Z,31.30
2017-06-20T11:43:22.910Z,31.50
2017-06-20T11:45:50.447Z,31.50
2017-06-20T11:48:17.955Z,31.20
2017-06-20T11:50:45.467Z,30.80
2017-06-20T11:53:12.991Z,30.50
2017-06-20T11:55:40.495Z,30.70
2017-06-20T11:58:08.023Z,30.90
2017-06-20T12:00:35.535Z,31.30
2017-06-20T12:03:03.051Z,31.70
2017-06-20T12:05:30.602Z,31.60
2017-06-20T12:07:58.115Z,31.40
2017-06-20T12:10:25.656Z,31.50
2017-06-20T12:12:53.937Z,31.10
2017-06-20T12:15:21.464Z,31.10
2017-06-20T12:17:49.000Z,31.10
2017-06-20T12:20:16.508Z,31.10
2017-06-20T12:22:44.807Z,31.40
2017-06-20T12:25:12.328Z,31.40
2017-06-20T12:27:39.837Z,31.60
2017-06-20T12:30:07.363Z,32.00
2017-06-20T12:32:35.638Z,31.80
2017-06-20T12:35:03.941Z,32.00
2017-06-20T12:37:31.451Z,32.00
2017-06-20T12:39:58.964Z,32.30
2017-06-20T12:42:26.496Z,32.20
2017-06-20T12:44:54.775Z,32.50
2017-06-20T12:47:22.304Z,32.40
2017-06-20T12:49:49.807Z,32.10
2017-06-20T12:52:17.316Z,32.10
2017-06-20T12:54:44.839Z,32.40
2017-06-20T12:57:12.344Z,32.50
2017-06-20T12:59:39.876Z,32.30
2017-06-20T13:02:07.391Z,32.10
2017-06-20T13:04:34.897Z,32.00
2017-06-20T13:07:02.420Z,32.00
2017-06-20T13:09:29.931Z,32.20
2017-06-20T13:11:57.463Z,32.30
2017-06-20T13:14:24.971Z,32.30
2017-06-20T13:16:52.476Z,32.40
2017-06-20T13:19:20.000Z,32.40
2017-06-20T13:21:47.515Z,32.50
2017-06-20T13:24:15.068Z,32.80
2017-06-20T13:26:42.579Z,32.70
2017-06-20T13:29:10.151Z,32.50
2017-06-20T13:31:37.671Z,32.40
2017-06-20T13:34:05.948Z,32.00
2017-06-20T13:36:33.486Z,31.90
2017-06-20T13:39:00.987Z,31.70
2017-06-20T13:41:28.504Z,31.70
2017-06-20T13:43:56.384Z,32.00
2017-06-20T13:46:24.677Z,32.00
2017-06-20T13:48:52.215Z,31.90
2017-06-20T13:51:20.588Z,32.20
2017-06-20T13:53:48.096Z,32.20
2017-06-20T13:56:15.615Z,32.00
2017-06-20T13:58:43.889Z,31.60
2017-06-20T14:01:11.415Z,31.60
2017-06-20T14:03:38.924Z,31.50
2017-06-20T14:06:06.435Z,31.10
2017-06-20T14:08:33.959Z,30.90
2017-06-20T14:11:01.463Z,30.60
2017-06-20T14:13:28.991Z,30.40
2017-06-20T14:15:56.507Z,30.20
2017-06-20T14:18:24.787Z,29.90
2017-06-20T14:20:53.070Z,29.80
2017-06-20T14:23:20.575Z,29.80
2017-06-20T14:25:48.103Z,29.70
2017-06-20T14:28:15.607Z,29.60
2017-06-20T14:30:43.111Z,29.50
2017-06-20T14:33:10.631Z,29.00
2017-06-20T14:35:38.143Z,28.20
2017-06-20T14:38:05.672Z,27.70
2017-06-20T14:40:33.951Z,27.10
2017-06-20T14:43:01.456Z,27.00
2017-06-20T14:45:28.979Z,26.90
2017-06-20T14:47:56.487Z,26.80
2017-06-20T14:50:24.023Z,26.60
2017-06-20T14:52:51.527Z,26.40
2017-06-20T14:55:19.795Z,26.20
2017-06-20T14:57:47.324Z,26.20
2017-06-20T15:00:14.831Z,26.00
2017-06-20T15:02:43.123Z,25.90
2017-06-20T15:05:10.635Z,25.90
2017-06-20T15:07:38.152Z,26.00
2017-06-20T15:10:05.683Z,26.00
2017-06-20T15:12:33.955Z,26.30
2017-06-20T15:15:01.488Z,26.20
2017-06-20T15:17:28.994Z,26.40
2017-06-20T15:19:56.508Z,26.70
2017-06-20T15:22:24.059Z,26.90
2017-06-20T15:24:51.571Z,27.30
2017-06-20T15:27:19.095Z,27.50
2017-06-20T15:29:47.371Z,27.90
2017-06-20T15:32:15.643Z,28.00
2017-06-20T15:34:43.171Z,28.00
2017-06-20T15:37:10.680Z,28.10
2017-06-20T15:39:38.971Z,28.20
2017-06-20T15:42:06.479Z,28.20
2017-06-20T15:44:33.987Z,28.30
2017-06-20T15:47:01.523Z,28.30
2017-06-20T15:49:29.791Z,28.30
2017-06-20T15:51:57.316Z,28.30
2017-06-20T15:54:24.823Z,28.40
2017-06-20T15:56:53.143Z,28.40
2017-06-20T15:59:20.667Z,28.40
2017-06-20T16:01:48.179Z,28.30
2017-06-20T16:04:15.715Z,28.30
2017-06-20T16:06:43.231Z,28.20
2017-06-20T16:09:11.503Z,28.10
2017-06-20T16:11:39.792Z,28.00
2017-06-20T16:14:07.305Z,28.00
2017-06-20T16:16:34.835Z,27.90
2017-06-20T16:19:02.343Z,27.90
2017-06-20T16:21:29.848Z,27.70
2017-06-20T16:23:57.380Z,27.50
2017-06-20T16:26:24.882Z,27.40
2017-06-20T16:28:52.421Z,27.30
2017-06-20T16:31:19.931Z,27.20
2017-06-20T16:33:47.440Z,27.10
2017-06-20T16:36:14.967Z,27.00
2017-06-20T16:38:42.479Z,27.00
2017-06-20T16:41:10.012Z,27.10
2017-06-20T16:43:37.514Z,27.20
2017-06-20T16:46:05.020Z,27.30
2017-06-20T16:48:32.550Z,27.40
2017-06-20T16:51:00.831Z,27.40
2017-06-20T16:53:29.123Z,27.40
2017-06-20T16:55:56.639Z,27.40
2017-06-20T16:58:24.171Z,27.40
2017-06-20T17:00:51.683Z,27.30
2017-06-20T17:03:19.961Z,27.00
2017-06-20T17:05:48.256Z,26.90
2017-06-20T17:08:15.774Z,26.90
2017-06-20T17:10:43.327Z,26.80
2017-06-20T17:13:10.835Z,26.70
2017-06-20T17:15:38.339Z,26.60
2017-06-20T17:18:05.859Z,26.70
2017-06-20T17:20:33.371Z,26.70
2017-06-20T17:23:01.676Z,26.60
2017-06-20T17:25:29.183Z,26.60
2017-06-20T17:27:56.695Z,26.50
2017-06-20T17:30:24.221Z,26.50
2017-06-20T17:32:51.832Z,26.50
2017-06-20T17:35:19.392Z,26.50
2017-06-20T17:37:46.900Z,26.50
2017-06-20T17:40:14.404Z,26.50
2017-06-20T17:42:42.319Z,26.50
2017-06-20T17:45:09.831Z,26.50
2017-06-20T17:47:37.359Z,26.40
2017-06-20T17:50:05.639Z,26.20
2017-06-20T17:52:33.907Z,26.10
2017-06-20T17:55:02.195Z,26.00
2017-06-20T17:57:29.703Z,26.00
2017-06-20T17:59:57.227Z,26.00
2017-06-20T18:02:24.731Z,25.90
2017-06-20T18:04:52.232Z,25.90
2017-06-20T18:07:19.756Z,26.00
2017-06-20T18:09:47.264Z,26.00
2017-06-20T18:12:14.787Z,25.90
2017-06-20T18:14:43.063Z,26.00
2017-06-20T18:17:10.578Z,25.90
2017-06-20T18:19:38.107Z,25.80
2017-06-20T18:22:05.616Z,25.60
2017-06-20T18:24:33.151Z,25.40
2017-06-20T18:27:00.663Z,25.20
2017-06-20T18:29:28.931Z,25.30
2017-06-20T18:31:57.220Z,25.10
2017-06-20T18:34:24.743Z,25.10
2017-06-20T18:36:52.267Z,24.90
2017-06-20T18:39:19.771Z,24.80
2017-06-20T18:41:47.284Z,24.70
2017-06-20T18:45:55.955Z,24.70
2017-06-20T18:48:23.491Z,24.60
2017-06-20T18:50:51.002Z,24.60
2017-06-20T18:53:18.515Z,24.60
2017-06-20T18:55:46.042Z,24.40
2017-06-20T18:58:13.547Z,24.20
2017-06-20T19:00:41.080Z,24.20
2017-06-20T19:03:08.607Z,24.00
2017-06-20T19:05:36.156Z,23.90
2017-06-20T19:08:03.691Z,23.90
2017-06-20T19:10:31.207Z,23.70
2017-06-20T19:12:58.744Z,23.60
2017-06-20T19:15:26.253Z,23.60
2017-06-20T19:17:53.770Z,23.50
2017-06-20T19:20:21.299Z,23.50
2017-06-20T19:22:49.571Z,23.40
2017-06-20T19:25:17.868Z,23.40
2017-06-20T19:27:45.379Z,23.40
2017-06-20T19:30:12.887Z,23.30
2017-06-20T19:32:40.421Z,23.10
2017-06-20T19:35:08.700Z,23.00
2017-06-20T19:37:36.999Z,23.00
2017-06-20T19:40:04.516Z,22.90
2017-06-20T19:42:32.027Z,22.90
2017-06-20T19:44:59.569Z,22.90
2017-06-20T19:47:27.076Z,22.70
2017-06-20T19:49:54.607Z,22.70
2017-06-20T19:52:22.115Z,22.70
2017-06-20T19:54:49.655Z,22.70
2017-06-20T19:57:17.167Z,22.70
2017-06-20T19:59:44.674Z,22.60
2017-06-20T20:02:12.205Z,22.50
2017-06-20T20:04:39.719Z,22.50
2017-06-20T20:07:08.011Z,22.50
2017-06-20T20:09:35.526Z,22.50
2017-06-20T20:12:03.083Z,22.40
2017-06-20T20:14:30.599Z,22.30
2017-06-20T20:16:58.113Z,22.20
2017-06-20T20:19:25.635Z,22.30
2017-06-20T20:21:53.151Z,22.30
2017-06-20T20:24:20.683Z,22.20
2017-06-20T20:26:48.191Z,22.10
2017-06-20T20:29:15.728Z,22.10
2017-06-20T20:31:43.244Z,22.20
2017-06-20T20:34:10.755Z,22.10
2017-06-20T20:36:38.283Z,22.10
2017-06-20T20:39:06.408Z,22.10
2017-06-20T20:41:34.023Z,22.10
2017-06-20T20:44:02.310Z,22.10
2017-06-20T20:46:29.840Z,22.10
2017-06-20T20:48:57.355Z,22.10
2017-06-20T20:51:24.883Z,22.00
2017-06-20T20:53:53.169Z,22.10
2017-06-20T20:56:20.687Z,22.10
2017-06-20T20:58:48.264Z,22.10
2017-06-20T21:01:16.555Z,22.10
2017-06-20T21:03:44.084Z,22.10
2017-06-20T21:06:11.599Z,22.20
2017-06-20T21:08:39.127Z,22.10
2017-06-20T21:11:06.635Z,22.10
2017-06-20T21:13:34.147Z,22.00
2017-06-20T21:16:01.677Z,22.00
2017-06-20T21:18:29.194Z,22.00
2017-06-20T21:20:56.721Z,22.00
2017-06-20T21:23:24.990Z,22.00
2017-06-20T21:25:53.293Z,21.90
2017-06-20T21:28:20.808Z,22.00
2017-06-20T21:30:48.324Z,21.90
2017-06-20T21:33:15.877Z,21.90
2017-06-20T21:35:43.383Z,21.90
2017-06-20T21:38:10.919Z,21.90
2017-06-20T21:40:38.427Z,21.90
2017-06-20T21:43:05.945Z,22.00
2017-06-20T21:45:33.475Z,22.00
2017-06-20T21:48:00.983Z,22.00
2017-06-20T21:50:29.281Z,22.00
2017-06-20T21:52:56.799Z,22.00
2017-06-20T21:55:24.336Z,22.00
2017-06-20T21:57:51.848Z,21.90
2017-06-20T22:00:20.123Z,21.80
2017-06-20T22:02:47.655Z,21.80
2017-06-20T22:05:15.172Z,21.90
2017-06-20T22:07:42.704Z,22.00
2017-06-20T22:10:10.219Z,22.00
2017-06-20T22:12:37.849Z,22.00
2017-06-20T22:15:05.359Z,22.00
2017-06-20T22:17:32.872Z,22.00
2017-06-20T22:20:00.403Z,22.10
2017-06-20T22:22:27.918Z,22.10
2017-06-20T22:24:55.448Z,22.00
2017-06-20T22:27:22.961Z,22.00
2017-06-20T22:29:51.263Z,21.80
2017-06-20T22:32:18.783Z,21.80
2017-06-20T22:34:46.303Z,21.80
2017-06-20T22:37:13.836Z,21.70
2017-06-20T22:39:41.353Z,21.70
2017-06-20T22:42:08.887Z,21.70
2017-06-20T22:44:36.395Z,21.70
2017-06-20T22:47:04.700Z,21.60
2017-06-20T22:49:32.213Z,21.60
2017-06-20T22:51:59.724Z,21.50
2017-06-20T22:54:27.251Z,21.50
2017-06-20T22:56:54.769Z,21.40
2017-06-20T22:59:22.299Z,21.40
2017-06-20T23:01:49.807Z,21.30
2017-06-20T23:04:17.343Z,21.30
2017-06-20T23:06:44.847Z,21.30
2017-06-20T23:09:12.359Z,21.30
2017-06-20T23:11:39.887Z,21.30
2017-06-20T23:14:07.403Z,21.30
2017-06-20T23:16:34.927Z,21.30
2017-06-20T23:19:02.440Z,21.30
2017-06-20T23:21:29.971Z,21.20
2017-06-20T23:23:57.488Z,21.10
2017-06-20T23:26:25.001Z,21.00
2017-06-20T23:28:53.299Z,20.90
2017-06-20T23:31:20.829Z,20.90
2017-06-20T23:33:48.355Z,21.00
2017-06-20T23:36:15.871Z,20.90
2017-06-20T23:38:43.409Z,20.90
2017-06-20T23:41:11.691Z,20.90
2017-06-20T23:43:39.968Z,20.80
2017-06-20T23:46:08.263Z,20.70
2017-06-20T23:48:35.779Z,20.70
2017-06-20T23:51:03.310Z,20.70
2017-06-20T23:53:30.819Z,20.70
2017-06-20T23:55:59.138Z,20.70
2017-06-20T23:58:26.647Z,20.70
